createdAt,value
2022-09-26T00:00:49.673Z,12.80
2022-09-26T00:03:16.314Z,12.82
2022-09-26T00:05:42.638Z,12.84
2022-09-26T00:08:08.990Z,12.86
2022-09-26T00:10:35.452Z,12.87
2022-09-26T00:13:01.800Z,12.89
2022-09-26T00:15:28.220Z,12.90
2022-09-26T00:17:54.571Z,12.90
2022-09-26T00:20:20.924Z,12.90
2022-09-26T00:22:47.247Z,12.89
2022-09-26T00:25:14.034Z,12.88
2022-09-26T00:27:40.402Z,12.89
2022-09-26T00:30:07.645Z,12.88
2022-09-26T00:32:33.980Z,12.87
2022-09-26T00:35:00.321Z,12.86
2022-09-26T00:37:26.671Z,12.84
2022-09-26T00:39:53.000Z,12.82
2022-09-26T00:42:22.450Z,12.82
2022-09-26T00:44:54.754Z,12.80
2022-09-26T00:47:39.206Z,12.78
2022-09-26T00:50:26.259Z,12.78
2022-09-26T00:52:58.446Z,12.75
2022-09-26T00:55:35.007Z,12.74
2022-09-26T00:58:09.974Z,12.73
2022-09-26T01:00:37.661Z,12.70
2022-09-26T01:03:04.127Z,12.69
2022-09-26T01:05:31.734Z,12.69
2022-09-26T01:07:59.128Z,12.69
2022-09-26T01:10:26.893Z,12.70
2022-09-26T01:12:55.762Z,12.69
2022-09-26T01:15:22.221Z,12.68
2022-09-26T01:17:49.618Z,12.68
2022-09-26T01:20:42.076Z,12.70
2022-09-26T01:23:17.865Z,12.69
2022-09-26T01:26:19.372Z,12.72
2022-09-26T01:29:23.203Z,12.73
2022-09-26T01:32:22.305Z,12.75
2022-09-26T01:35:17.591Z,12.75
2022-09-26T01:38:10.066Z,12.74
2022-09-26T01:41:03.531Z,12.76
2022-09-26T01:43:50.409Z,12.76
2022-09-26T01:46:31.234Z,12.75
2022-09-26T01:49:02.369Z,12.76
2022-09-26T01:51:48.906Z,12.74
2022-09-26T01:54:24.642Z,12.77
2022-09-26T01:56:53.331Z,12.74
2022-09-26T01:59:26.059Z,12.75
2022-09-26T02:01:59.390Z,12.75
2022-09-26T02:04:32.387Z,12.74
2022-09-26T02:07:05.554Z,12.74
2022-09-26T02:09:53.475Z,12.74
2022-09-26T02:12:26.874Z,12.76
2022-09-26T02:14:56.622Z,12.75
2022-09-26T02:17:28.459Z,12.75
2022-09-26T02:19:58.926Z,12.73
2022-09-26T02:22:32.771Z,12.74
2022-09-26T02:24:59.270Z,12.72
2022-09-26T02:27:27.179Z,12.71
2022-09-26T02:29:54.631Z,12.70
2022-09-26T02:32:25.948Z,12.71
2022-09-26T02:34:52.420Z,12.70
2022-09-26T02:37:21.031Z,12.69
2022-09-26T02:39:49.739Z,12.68
2022-09-26T02:42:40.487Z,12.67
2022-09-26T02:45:46.312Z,12.65
2022-09-26T02:48:29.650Z,12.64
2022-09-26T02:51:36.165Z,12.63
2022-09-26T02:54:14.640Z,12.62
2022-09-26T02:56:58.430Z,12.62
2022-09-26T02:59:51.997Z,12.63
2022-09-26T03:02:25.376Z,12.63
2022-09-26T03:05:00.647Z,12.62
2022-09-26T03:07:32.511Z,12.65
2022-09-26T03:10:03.601Z,12.66
2022-09-26T03:12:32.579Z,12.67
2022-09-26T03:15:01.896Z,12.68
2022-09-26T03:17:29.676Z,12.70
2022-09-26T03:20:05.722Z,12.73
2022-09-26T03:22:33.436Z,12.72
2022-09-26T03:25:00.545Z,12.75
2022-09-26T03:27:27.565Z,12.75
2022-09-26T03:29:54.004Z,12.78
2022-09-26T03:32:20.326Z,12.80
2022-09-26T03:34:46.697Z,12.81
2022-09-26T03:37:13.641Z,12.84
2022-09-26T03:39:39.966Z,12.86
2022-09-26T03:42:06.371Z,12.89
2022-09-26T03:44:32.696Z,12.90
2022-09-26T03:46:59.042Z,12.92
2022-09-26T03:49:25.434Z,12.94
2022-09-26T03:51:51.762Z,12.96
2022-09-26T03:54:18.094Z,12.98
2022-09-26T03:56:44.908Z,13.00
2022-09-26T03:59:11.334Z,13.02
2022-09-26T04:01:37.772Z,13.03
2022-09-26T04:04:05.180Z,13.05
2022-09-26T04:06:31.532Z,13.08
2022-09-26T04:08:57.939Z,13.09
2022-09-26T04:11:24.956Z,13.10
2022-09-26T04:13:53.785Z,13.14
2022-09-26T04:16:23.527Z,13.15
2022-09-26T04:18:55.274Z,13.16
2022-09-26T04:21:21.589Z,13.18
2022-09-26T04:23:48.051Z,13.20
2022-09-26T04:26:22.897Z,13.24
2022-09-26T04:28:51.991Z,13.25
2022-09-26T04:31:18.497Z,13.25
2022-09-26T04:33:45.216Z,13.27
2022-09-26T04:36:13.864Z,13.27
2022-09-26T04:38:41.024Z,13.27
2022-09-26T04:41:10.609Z,13.30
2022-09-26T04:43:37.664Z,13.29
2022-09-26T04:46:09.171Z,13.31
2022-09-26T04:48:36.330Z,13.31
2022-09-26T04:51:08.259Z,13.31
2022-09-26T04:53:35.801Z,13.31
2022-09-26T04:56:02.326Z,13.31
2022-09-26T04:58:29.668Z,13.32
2022-09-26T05:00:56.404Z,13.33
2022-09-26T05:03:22.792Z,13.34
2022-09-26T05:05:50.331Z,13.35
2022-09-26T05:08:17.043Z,13.35
2022-09-26T05:10:43.917Z,13.36
2022-09-26T05:13:10.814Z,13.36
2022-09-26T05:15:39.765Z,13.36
2022-09-26T05:18:08.400Z,13.35
2022-09-26T05:20:35.531Z,13.36
2022-09-26T05:23:03.689Z,13.34
2022-09-26T05:25:55.006Z,13.34
2022-09-26T05:28:21.621Z,13.31
2022-09-26T05:30:48.232Z,13.29
2022-09-26T05:33:14.877Z,13.29
2022-09-26T05:35:41.303Z,13.28
2022-09-26T05:38:07.693Z,13.26
2022-09-26T05:40:52.601Z,13.25
2022-09-26T05:43:18.984Z,13.25
2022-09-26T05:45:50.773Z,13.25
2022-09-26T05:48:17.287Z,13.25
2022-09-26T05:50:44.018Z,13.27
2022-09-26T05:53:10.472Z,13.29
2022-09-26T05:55:39.816Z,13.32
2022-09-26T05:58:07.536Z,13.36
2022-09-26T06:00:34.193Z,13.38
2022-09-26T06:03:03.574Z,13.40
2022-09-26T06:05:32.235Z,13.45
2022-09-26T06:08:01.653Z,13.47
2022-09-26T06:10:28.078Z,13.50
2022-09-26T06:12:54.497Z,13.52
2022-09-26T06:15:21.142Z,13.53
2022-09-26T06:17:48.168Z,13.54
2022-09-26T06:20:14.566Z,13.56
2022-09-26T06:22:41.903Z,13.56
2022-09-26T06:25:10.648Z,13.58
2022-09-26T06:27:41.159Z,13.59
2022-09-26T06:30:10.832Z,13.61
2022-09-26T06:32:39.453Z,13.63
2022-09-26T06:35:07.267Z,13.65
2022-09-26T06:37:34.803Z,13.67
2022-09-26T06:40:01.700Z,13.69
2022-09-26T06:42:28.250Z,13.72
2022-09-26T06:44:55.226Z,13.75
2022-09-26T06:47:22.243Z,13.79
2022-09-26T06:49:49.835Z,13.83
2022-09-26T06:52:16.386Z,13.86
2022-09-26T06:54:43.006Z,13.91
2022-09-26T06:57:15.001Z,13.97
2022-09-26T06:59:44.036Z,14.01
2022-09-26T07:02:11.400Z,14.05
2022-09-26T07:04:38.072Z,14.10
2022-09-26T07:07:05.220Z,14.15
2022-09-26T07:09:32.270Z,14.19
2022-09-26T07:12:15.701Z,14.24
2022-09-26T07:14:44.089Z,14.29
2022-09-26T07:17:15.949Z,14.35
2022-09-26T07:19:43.163Z,14.38
2022-09-26T07:22:10.958Z,14.41
2022-09-26T07:24:38.024Z,14.45
2022-09-26T07:27:05.522Z,14.50
2022-09-26T07:29:33.747Z,14.53
2022-09-26T07:32:00.931Z,14.57
2022-09-26T07:34:28.116Z,14.61
2022-09-26T07:36:55.316Z,14.65
2022-09-26T07:39:22.360Z,14.69
2022-09-26T07:41:49.911Z,14.75
2022-09-26T07:45:09.248Z,14.81
2022-09-26T07:47:22.281Z,14.88
2022-09-26T07:50:07.768Z,14.96
2022-09-26T07:52:34.461Z,15.03
2022-09-26T07:55:01.071Z,15.09
2022-09-26T07:57:29.283Z,15.14
2022-09-26T07:59:55.862Z,15.20
2022-09-26T08:02:24.789Z,15.24
2022-09-26T08:05:03.977Z,15.29
2022-09-26T08:07:33.395Z,15.34
2022-09-26T08:10:02.211Z,15.36
2022-09-26T08:12:29.658Z,15.41
2022-09-26T08:14:56.134Z,15.46
2022-09-26T08:17:22.483Z,15.49
2022-09-26T08:19:48.883Z,15.52
2022-09-26T08:22:15.211Z,15.53
2022-09-26T08:24:41.911Z,15.55
2022-09-26T08:27:09.848Z,15.55
2022-09-26T08:29:36.193Z,15.56
2022-09-26T08:32:03.962Z,15.57
2022-09-26T08:34:35.243Z,15.55
2022-09-26T08:37:01.591Z,15.54
2022-09-26T08:39:32.538Z,15.50
2022-09-26T08:42:07.364Z,15.49
2022-09-26T08:44:53.939Z,15.46
2022-09-26T08:47:48.773Z,15.42
2022-09-26T08:50:33.127Z,15.41
2022-09-26T08:53:08.443Z,15.39
2022-09-26T08:55:40.862Z,15.37
2022-09-26T08:58:18.775Z,15.36
2022-09-26T09:01:00.630Z,15.36
2022-09-26T09:03:36.256Z,15.36
2022-09-26T09:06:11.225Z,15.36
2022-09-26T09:08:51.392Z,15.36
2022-09-26T09:11:23.334Z,15.34
2022-09-26T09:14:08.292Z,15.33
2022-09-26T09:16:44.815Z,15.31
2022-09-26T09:19:18.755Z,15.29
2022-09-26T09:22:12.879Z,15.25
2022-09-26T09:24:42.976Z,15.23
2022-09-26T09:30:17.362Z,15.26
2022-09-26T09:32:53.197Z,15.28
2022-09-26T09:35:29.454Z,15.29
2022-09-26T09:37:56.504Z,15.29
2022-09-26T09:40:29.470Z,15.30
2022-09-26T09:43:03.461Z,15.33
2022-09-26T09:45:50.939Z,15.33
2022-09-26T09:48:17.778Z,15.33
2022-09-26T09:51:02.362Z,15.37
2022-09-26T09:53:34.776Z,15.40
2022-09-26T09:56:31.280Z,15.43
2022-09-26T09:59:03.598Z,15.45
2022-09-26T10:01:41.739Z,15.49
2022-09-26T10:04:33.841Z,15.50
2022-09-26T10:07:01.828Z,15.49
2022-09-26T10:09:39.950Z,15.49
2022-09-26T10:12:19.194Z,15.50
2022-09-26T10:14:55.009Z,15.51
2022-09-26T10:17:23.584Z,15.53
2022-09-26T10:19:50.536Z,15.57
2022-09-26T10:22:29.378Z,15.61
2022-09-26T10:25:16.937Z,15.65
2022-09-26T10:27:53.695Z,15.71
2022-09-26T10:30:20.121Z,15.72
2022-09-26T10:32:56.553Z,15.76
2022-09-26T10:35:25.314Z,15.78
2022-09-26T10:38:02.303Z,15.82
2022-09-26T10:40:47.553Z,15.84
2022-09-26T10:43:30.678Z,15.85
2022-09-26T10:46:06.558Z,15.85
2022-09-26T10:48:38.165Z,15.84
2022-09-26T10:51:07.202Z,15.80
2022-09-26T10:53:40.077Z,15.78
2022-09-26T10:56:11.942Z,15.74
2022-09-26T10:58:45.436Z,15.71
2022-09-26T11:01:21.837Z,15.67
2022-09-26T11:03:49.432Z,15.62
2022-09-26T11:06:31.631Z,15.57
2022-09-26T11:09:02.399Z,15.51
2022-09-26T11:11:38.236Z,15.45
2022-09-26T11:14:08.286Z,15.38
2022-09-26T11:16:43.565Z,15.34
2022-09-26T11:19:31.162Z,15.29
2022-09-26T11:22:25.121Z,15.26
2022-09-26T11:25:15.845Z,15.24
2022-09-26T11:27:51.054Z,15.20
2022-09-26T11:30:20.887Z,15.17
2022-09-26T11:32:58.567Z,15.15
2022-09-26T11:35:56.041Z,15.12
2022-09-26T11:38:46.358Z,15.10
2022-09-26T11:41:36.359Z,15.09
2022-09-26T11:44:20.640Z,15.08
2022-09-26T11:47:13.534Z,15.07
2022-09-26T11:50:04.387Z,15.07
2022-09-26T11:52:53.263Z,15.07
2022-09-26T11:55:41.031Z,15.10
2022-09-26T11:58:23.098Z,15.13
2022-09-26T12:01:30.512Z,15.17
2022-09-26T12:04:07.635Z,15.21
2022-09-26T12:06:56.303Z,15.25
2022-09-26T12:10:00.263Z,15.30
2022-09-26T12:12:42.516Z,15.36
2022-09-26T12:15:21.824Z,15.42
2022-09-26T12:17:51.107Z,15.48
2022-09-26T12:20:30.216Z,15.54
2022-09-26T12:23:21.726Z,15.61
2022-09-26T12:25:57.143Z,15.65
2022-09-26T12:28:35.746Z,15.69
2022-09-26T12:31:32.631Z,15.74
2022-09-26T12:33:58.934Z,15.79
2022-09-26T12:36:47.680Z,15.82
2022-09-26T12:39:47.124Z,15.80
2022-09-26T12:42:28.806Z,15.78
2022-09-26T12:45:04.990Z,15.74
2022-09-26T12:48:02.776Z,15.72
2022-09-26T12:50:40.242Z,15.71
2022-09-26T12:53:27.479Z,15.70
2022-09-26T12:56:15.405Z,15.70
2022-09-26T12:59:15.573Z,15.71
2022-09-26T13:02:01.525Z,15.72
2022-09-26T13:05:19.238Z,15.74
2022-09-26T13:07:54.619Z,15.72
2022-09-26T13:10:51.557Z,15.76
2022-09-26T13:13:33.282Z,15.78
2022-09-26T13:16:23.724Z,15.78
2022-09-26T13:18:56.015Z,15.76
2022-09-26T13:21:36.536Z,15.73
2022-09-26T13:24:13.804Z,15.71
2022-09-26T13:26:47.164Z,15.70
2022-09-26T13:29:20.871Z,15.70
2022-09-26T13:31:56.055Z,15.70
2022-09-26T13:34:38.088Z,15.70
2022-09-26T13:37:07.967Z,15.69
2022-09-26T13:39:52.804Z,15.70
2022-09-26T13:42:30.772Z,15.70
2022-09-26T13:45:19.312Z,15.70
2022-09-26T13:47:55.325Z,15.68
2022-09-26T13:50:25.244Z,15.71
2022-09-26T13:53:11.390Z,15.69
2022-09-26T13:55:37.971Z,15.67
2022-09-26T13:58:26.581Z,15.66
2022-09-26T14:00:53.619Z,15.65
2022-09-26T14:03:20.190Z,15.63
2022-09-26T14:05:52.543Z,15.63
2022-09-26T14:08:44.428Z,15.62
2022-09-26T14:11:25.120Z,15.63
2022-09-26T14:14:18.615Z,15.65
2022-09-26T14:16:50.323Z,15.66
2022-09-26T14:19:54.159Z,15.68
2022-09-26T14:22:50.418Z,15.69
2022-09-26T14:25:44.766Z,15.72
2022-09-26T14:28:22.694Z,15.72
2022-09-26T14:31:31.529Z,15.72
2022-09-26T14:34:16.863Z,15.71
2022-09-26T14:36:49.293Z,15.70
2022-09-26T14:39:27.680Z,15.69
2022-09-26T14:41:55.639Z,15.66
2022-09-26T14:44:22.562Z,15.66
2022-09-26T14:46:54.560Z,15.64
2022-09-26T14:49:27.118Z,15.61
2022-09-26T14:52:01.002Z,15.57
2022-09-26T14:54:46.990Z,15.55
2022-09-26T14:57:23.818Z,15.50
2022-09-26T14:59:50.490Z,15.45
2022-09-26T15:02:38.179Z,15.43
2022-09-26T15:05:09.228Z,15.41
2022-09-26T15:07:56.850Z,15.39
2022-09-26T15:10:35.362Z,15.35
2022-09-26T15:13:17.042Z,15.34
2022-09-26T15:16:10.127Z,15.32
2022-09-26T15:18:45.947Z,15.29
2022-09-26T15:21:28.404Z,15.26
2022-09-26T15:23:57.276Z,15.23
2022-09-26T15:26:33.274Z,15.20
2022-09-26T15:29:00.374Z,15.21
2022-09-26T15:31:37.349Z,15.18
2022-09-26T15:34:19.832Z,15.14
2022-09-26T15:36:51.464Z,15.09
2022-09-26T15:39:30.282Z,15.05
2022-09-26T15:42:20.624Z,15.02
2022-09-26T15:45:00.737Z,15.00
2022-09-26T15:47:30.340Z,14.98
2022-09-26T15:50:23.361Z,14.97
2022-09-26T15:52:56.523Z,14.95
2022-09-26T15:55:28.212Z,14.92
2022-09-26T15:57:59.231Z,14.89
2022-09-26T16:00:26.055Z,14.88
2022-09-26T16:02:53.734Z,14.85
2022-09-26T16:05:21.659Z,14.85
2022-09-26T16:07:51.454Z,14.84
2022-09-26T16:10:32.048Z,14.83
2022-09-26T16:13:00.514Z,14.81
2022-09-26T16:15:30.949Z,14.83
2022-09-26T16:17:58.722Z,14.81
2022-09-26T16:20:31.262Z,14.81
2022-09-26T16:23:05.353Z,14.82
2022-09-26T16:25:51.197Z,14.81
2022-09-26T16:28:18.094Z,14.82
2022-09-26T16:30:51.493Z,14.82
2022-09-26T16:33:32.702Z,14.82
2022-09-26T16:36:13.196Z,14.82
2022-09-26T16:38:39.593Z,14.80
2022-09-26T16:41:56.495Z,14.83
2022-09-26T16:44:27.797Z,14.80
2022-09-26T16:46:56.032Z,14.79
2022-09-26T16:49:34.461Z,14.79
2022-09-26T16:52:21.819Z,14.78
2022-09-26T16:54:48.998Z,14.76
2022-09-26T16:57:22.639Z,14.77
2022-09-26T16:59:49.587Z,14.73
2022-09-26T17:02:16.995Z,14.72
2022-09-26T17:04:43.570Z,14.68
2022-09-26T17:07:13.958Z,14.67
2022-09-26T17:09:42.498Z,14.63
2022-09-26T17:12:19.482Z,14.62
2022-09-26T17:14:49.079Z,14.59
2022-09-26T17:17:21.763Z,14.58
2022-09-26T17:19:55.391Z,14.55
2022-09-26T17:22:26.667Z,14.53
2022-09-26T17:24:53.974Z,14.51
2022-09-26T17:27:41.428Z,14.50
2022-09-26T17:30:16.216Z,14.48
2022-09-26T17:32:47.165Z,14.45
2022-09-26T17:35:19.944Z,14.43
2022-09-26T17:37:46.428Z,14.41
2022-09-26T17:40:17.260Z,14.39
2022-09-26T17:42:43.651Z,14.38
2022-09-26T17:45:10.112Z,14.36
2022-09-26T17:47:37.919Z,14.33
2022-09-26T17:50:05.254Z,14.30
2022-09-26T17:52:33.259Z,14.30
2022-09-26T17:55:04.175Z,14.29
2022-09-26T17:57:32.993Z,14.27
2022-09-26T18:00:15.366Z,14.28
2022-09-26T18:02:46.079Z,14.28
2022-09-26T18:05:21.571Z,14.29
2022-09-26T18:07:52.283Z,14.27
2022-09-26T18:10:33.986Z,14.28
2022-09-26T18:13:12.728Z,14.27
2022-09-26T18:15:39.814Z,14.25
2022-09-26T18:18:14.359Z,14.26
2022-09-26T18:20:41.106Z,14.25
2022-09-26T18:23:14.864Z,14.26
2022-09-26T18:25:43.507Z,14.26
2022-09-26T18:28:14.248Z,14.28
2022-09-26T18:30:44.373Z,14.28
2022-09-26T18:33:13.433Z,14.28
2022-09-26T18:35:43.023Z,14.28
2022-09-26T18:38:09.711Z,14.29
2022-09-26T18:40:43.293Z,14.30
2022-09-26T18:43:20.746Z,14.31
2022-09-26T18:45:47.439Z,14.31
2022-09-26T18:48:27.412Z,14.31
2022-09-26T18:50:54.105Z,14.32
2022-09-26T18:53:23.284Z,14.32
2022-09-26T18:56:08.274Z,14.30
2022-09-26T18:58:35.481Z,14.31
2022-09-26T19:01:06.293Z,14.33
2022-09-26T19:03:37.961Z,14.33
2022-09-26T19:06:18.906Z,14.33
2022-09-26T19:08:49.586Z,14.33
2022-09-26T19:11:19.503Z,14.33
2022-09-26T19:13:51.472Z,14.32
2022-09-26T19:16:18.600Z,14.32
2022-09-26T19:18:45.849Z,14.31
2022-09-26T19:21:22.831Z,14.32
2022-09-26T19:23:50.346Z,14.30
2022-09-26T19:26:29.547Z,14.30
2022-09-26T19:28:57.974Z,14.29
2022-09-26T19:31:25.794Z,14.28
2022-09-26T19:33:52.537Z,14.28
2022-09-26T19:36:19.959Z,14.26
2022-09-26T19:38:46.729Z,14.27
2022-09-26T19:41:13.433Z,14.26
2022-09-26T19:43:39.862Z,14.25
2022-09-26T19:46:13.221Z,14.27
2022-09-26T19:48:42.361Z,14.25
2022-09-26T19:51:12.288Z,14.26
2022-09-26T19:53:38.902Z,14.25
2022-09-26T19:56:05.628Z,14.25
2022-09-26T19:58:32.066Z,14.25
2022-09-26T20:01:02.531Z,14.26
2022-09-26T20:03:39.859Z,14.26
2022-09-26T20:06:18.472Z,14.27
2022-09-26T20:08:45.180Z,14.26
2022-09-26T20:11:11.851Z,14.26
2022-09-26T20:13:56.731Z,14.25
2022-09-26T20:16:23.655Z,14.25
2022-09-26T20:18:51.422Z,14.26
2022-09-26T20:21:22.365Z,14.28
2022-09-26T20:23:48.801Z,14.28
2022-09-26T20:26:17.103Z,14.32
2022-09-26T20:28:44.278Z,14.31
2022-09-26T20:31:19.573Z,14.33
2022-09-26T20:33:46.124Z,14.33
2022-09-26T20:36:12.949Z,14.33
2022-09-26T20:38:45.294Z,14.34
2022-09-26T20:41:33.983Z,14.35
2022-09-26T20:44:04.742Z,14.34
2022-09-26T20:46:35.336Z,14.35
2022-09-26T20:49:05.105Z,14.35
2022-09-26T20:51:34.953Z,14.34
2022-09-26T20:54:02.281Z,14.35
2022-09-26T20:56:29.291Z,14.36
2022-09-26T20:58:55.638Z,14.36
2022-09-26T21:01:23.221Z,14.37
2022-09-26T21:03:52.250Z,14.39
2022-09-26T21:06:22.043Z,14.40
2022-09-26T21:08:48.725Z,14.41
2022-09-26T21:11:18.612Z,14.43
2022-09-26T21:13:45.973Z,14.43
2022-09-26T21:16:14.324Z,14.46
2022-09-26T21:18:43.845Z,14.48
2022-09-26T21:21:20.900Z,14.50
2022-09-26T21:23:47.614Z,14.51
2022-09-26T21:26:19.122Z,14.53
2022-09-26T21:28:49.911Z,14.54
2022-09-26T21:31:24.974Z,14.55
2022-09-26T21:33:52.106Z,14.55
2022-09-26T21:36:21.050Z,14.55
2022-09-26T21:38:50.431Z,14.56
2022-09-26T21:41:16.816Z,14.56
2022-09-26T21:43:49.357Z,14.57
2022-09-26T21:46:17.281Z,14.58
2022-09-26T21:48:43.853Z,14.57
2022-09-26T21:51:12.802Z,14.60
2022-09-26T21:53:45.696Z,14.61
2022-09-26T21:56:35.548Z,14.63
2022-09-26T21:59:04.548Z,14.62
2022-09-26T22:01:31.058Z,14.62
2022-09-26T22:03:58.603Z,14.60
2022-09-26T22:06:25.002Z,14.59
2022-09-26T22:08:51.496Z,14.59
2022-09-26T22:11:18.224Z,14.57
2022-09-26T22:13:44.593Z,14.56
2022-09-26T22:16:13.149Z,14.56
2022-09-26T22:18:40.421Z,14.54
2022-09-26T22:21:08.750Z,14.54
2022-09-26T22:23:36.087Z,14.54
2022-09-26T22:26:02.594Z,14.55
2022-09-26T22:28:29.646Z,14.55
2022-09-26T22:31:00.185Z,14.55
2022-09-26T22:33:26.583Z,14.55
2022-09-26T22:35:52.953Z,14.55
2022-09-26T22:38:19.416Z,14.53
2022-09-26T22:40:46.232Z,14.53
2022-09-26T22:43:12.737Z,14.50
2022-09-26T22:45:39.224Z,14.48
2022-09-26T22:48:05.569Z,14.48
2022-09-26T22:50:32.214Z,14.48
2022-09-26T22:52:59.126Z,14.47
2022-09-26T22:55:25.497Z,14.46
2022-09-26T22:57:52.046Z,14.46
2022-09-26T23:00:18.547Z,14.47
2022-09-26T23:02:45.117Z,14.47
2022-09-26T23:05:11.894Z,14.48
2022-09-26T23:07:38.298Z,14.48
2022-09-26T23:10:04.900Z,14.48
2022-09-26T23:12:32.485Z,14.48
2022-09-26T23:14:58.838Z,14.48
2022-09-26T23:17:25.437Z,14.48
2022-09-26T23:19:52.274Z,14.48
2022-09-26T23:22:18.743Z,14.48
2022-09-26T23:24:45.079Z,14.47
2022-09-26T23:27:11.559Z,14.48
2022-09-26T23:29:38.066Z,14.48
2022-09-26T23:32:04.516Z,14.47
2022-09-26T23:34:30.864Z,14.47
2022-09-26T23:36:57.244Z,14.46
2022-09-26T23:39:23.678Z,14.44
2022-09-26T23:41:50.062Z,14.45
2022-09-26T23:44:16.473Z,14.42
2022-09-26T23:46:43.095Z,14.40
2022-09-26T23:49:09.522Z,14.38
2022-09-26T23:51:36.081Z,14.36
2022-09-26T23:54:02.716Z,14.33
2022-09-26T23:56:29.108Z,14.31
2022-09-26T23:58:57.332Z,14.28
